createdAt,value
2019-04-21T00:00:52.256Z,90.52
2019-04-21T00:03:23.570Z,91.46
2019-04-21T00:06:07.596Z,94.26
2019-04-21T00:08:41.504Z,90.65
2019-04-21T00:11:11.076Z,89.09
2019-04-21T00:13:32.629Z,90.67
2019-04-21T00:15:54.050Z,89.88
2019-04-21T00:18:48.590Z,90.63
2019-04-21T00:21:22.516Z,92.05
2019-04-21T00:24:03.882Z,91.34
2019-04-21T00:26:35.186Z,90.69
2019-04-21T00:29:09.169Z,91.12
2019-04-21T00:31:28.526Z,90.52
2019-04-21T00:33:47.798Z,89.54
2019-04-21T00:36:23.736Z,89.02
2019-04-21T00:39:18.796Z,89.04
2019-04-21T00:41:38.386Z,87.10
2019-04-21T00:44:00.743Z,87.39
2019-04-21T00:46:33.676Z,88.43
2019-04-21T00:49:01.376Z,87.17
2019-04-21T00:51:51.440Z,87.68
2019-04-21T00:54:21.367Z,85.78
2019-04-21T00:56:41.324Z,85.64
2019-04-21T00:59:13.836Z,85.86
2019-04-21T01:01:43.682Z,90.32
2019-04-21T01:04:19.671Z,86.06
2019-04-21T01:06:49.583Z,87.62
2019-04-21T01:09:09.520Z,88.48
2019-04-21T01:11:44.776Z,86.70
2019-04-21T01:14:20.080Z,87.20
2019-04-21T01:16:45.773Z,89.15
2019-04-21T01:19:17.316Z,86.15
2019-04-21T01:21:25.323Z,87.45
2019-04-21T01:23:55.720Z,85.86
2019-04-21T01:26:32.518Z,88.67
2019-04-21T01:29:12.057Z,86.21
2019-04-21T01:31:45.034Z,86.41
2019-04-21T01:34:14.921Z,86.95
2019-04-21T01:36:45.133Z,91.29
2019-04-21T01:39:22.543Z,90.98
2019-04-21T01:41:52.530Z,89.34
2019-04-21T01:44:27.285Z,88.40
2019-04-21T01:46:45.875Z,87.48
2019-04-21T01:49:11.497Z,89.91
2019-04-21T01:52:02.788Z,91.23
2019-04-21T01:54:40.413Z,89.40
2019-04-21T01:57:15.625Z,89.85
2019-04-21T01:59:39.615Z,93.54
2019-04-21T02:02:20.306Z,90.70
2019-04-21T02:04:54.287Z,91.03
2019-04-21T02:07:17.049Z,91.47
2019-04-21T02:09:50.977Z,89.49
2019-04-21T02:12:20.957Z,90.56
2019-04-21T02:15:03.269Z,89.07
2019-04-21T02:17:16.383Z,92.17
2019-04-21T02:19:45.112Z,89.13
2019-04-21T02:22:21.372Z,89.90
2019-04-21T02:24:56.663Z,89.22
2019-04-21T02:27:23.716Z,89.72
2019-04-21T02:29:54.951Z,91.43
2019-04-21T02:32:39.325Z,89.14
2019-04-21T02:35:12.403Z,89.73
2019-04-21T02:42:37.972Z,83.04
2019-04-21T02:47:48.543Z,81.88
2019-04-21T02:55:06.271Z,83.68
2019-04-21T03:03:09.345Z,82.86
2019-04-21T03:05:46.920Z,83.04
2019-04-21T03:08:14.761Z,83.18
2019-04-21T03:13:13.878Z,86.42
2019-04-21T03:15:49.386Z,86.39
2019-04-21T03:23:38.140Z,86.93
2019-04-21T03:28:43.461Z,85.87
2019-04-21T03:31:19.261Z,86.93
2019-04-21T03:36:33.531Z,87.30
2019-04-21T03:38:43.122Z,86.20
2019-04-21T03:41:04.004Z,86.17
2019-04-21T03:43:34.840Z,85.94
2019-04-21T03:46:02.130Z,86.06
2019-04-21T03:48:35.577Z,89.07
2019-04-21T03:51:04.856Z,87.31
2019-04-21T03:53:31.925Z,89.46
2019-04-21T03:56:02.755Z,89.95
2019-04-21T03:58:46.347Z,89.90
2019-04-21T04:01:21.992Z,90.13
2019-04-21T04:10:03.987Z,87.77
2019-04-21T04:12:26.924Z,88.84
2019-04-21T04:14:55.521Z,89.85
2019-04-21T04:17:25.590Z,87.92
2019-04-21T04:19:54.786Z,88.89
2019-04-21T04:22:31.383Z,88.09
2019-04-21T04:27:47.811Z,88.94
2019-04-21T04:29:59.127Z,88.97
2019-04-21T04:32:29.270Z,88.22
2019-04-21T04:35:03.890Z,87.32
2019-04-21T04:48:05.980Z,86.28
2019-04-21T04:53:15.779Z,85.63
2019-04-21T04:55:38.909Z,86.71
2019-04-21T04:58:12.429Z,88.00
2019-04-21T05:03:18.910Z,86.80
2019-04-21T05:06:38.855Z,87.78
2019-04-21T05:11:31.024Z,87.43
2019-04-21T05:13:58.070Z,86.46
2019-04-21T05:16:24.374Z,87.65
2019-04-21T05:21:29.955Z,85.31
2019-04-21T05:23:44.080Z,84.87
2019-04-21T05:26:06.354Z,85.66
2019-04-21T05:28:37.434Z,84.54
2019-04-21T05:31:45.885Z,86.34
2019-04-21T05:37:04.047Z,81.76
2019-04-21T05:39:37.509Z,82.26
2019-04-21T05:42:07.803Z,80.02
2019-04-21T05:44:58.844Z,78.49
2019-04-21T05:49:52.383Z,78.21
2019-04-21T05:52:22.794Z,79.89
2019-04-21T05:57:28.824Z,77.07
2019-04-21T05:59:53.333Z,76.28
2019-04-21T06:02:30.667Z,80.63
2019-04-21T06:05:24.527Z,80.37
2019-04-21T06:07:29.662Z,76.12
2019-04-21T06:09:59.678Z,78.88
2019-04-21T06:12:36.051Z,77.18
2019-04-21T06:15:02.610Z,73.97
2019-04-21T06:17:34.860Z,72.52
2019-04-21T06:20:00.308Z,73.03
2019-04-21T06:22:29.179Z,72.08
2019-04-21T06:25:31.590Z,73.57
2019-04-21T06:27:32.480Z,72.17
2019-04-21T06:30:19.504Z,70.46
2019-04-21T06:32:50.527Z,71.51
2019-04-21T06:35:28.147Z,68.97
2019-04-21T06:37:50.134Z,68.56
2019-04-21T06:40:33.689Z,69.81
2019-04-21T06:43:08.240Z,68.76
2019-04-21T06:47:57.584Z,67.34
2019-04-21T06:50:37.820Z,68.73
2019-04-21T06:53:23.784Z,68.80
2019-04-21T06:55:26.794Z,67.25
2019-04-21T06:58:00.709Z,68.82
2019-04-21T07:00:30.484Z,66.98
2019-04-21T07:03:08.377Z,66.87
2019-04-21T07:05:33.623Z,66.49
2019-04-21T07:08:16.862Z,64.72
2019-04-21T07:10:31.792Z,65.24
2019-04-21T07:13:03.483Z,65.69
2019-04-21T07:15:37.058Z,64.69
2019-04-21T07:18:04.548Z,65.56
2019-04-21T07:20:36.768Z,64.80
2019-04-21T07:23:09.332Z,65.11
2019-04-21T07:25:39.036Z,65.36
2019-04-21T07:28:05.264Z,65.08
2019-04-21T07:30:39.206Z,66.58
2019-04-21T07:33:37.568Z,65.62
2019-04-21T07:35:37.308Z,65.12
2019-04-21T07:38:02.958Z,64.48
2019-04-21T07:40:36.501Z,62.45
2019-04-21T07:43:03.689Z,61.74
2019-04-21T07:45:38.122Z,62.21
2019-04-21T07:48:14.427Z,62.34
2019-04-21T07:50:52.078Z,60.35
2019-04-21T07:53:27.727Z,58.95
2019-04-21T07:55:34.220Z,59.96
2019-04-21T07:58:22.679Z,57.75
2019-04-21T08:00:56.363Z,57.56
2019-04-21T08:03:30.364Z,56.75
2019-04-21T08:05:58.440Z,57.35
2019-04-21T08:08:20.798Z,55.71
2019-04-21T08:10:50.680Z,52.12
2019-04-21T08:13:34.525Z,50.98
2019-04-21T08:15:58.092Z,50.52
2019-04-21T08:18:28.788Z,52.96
2019-04-21T08:20:54.430Z,51.10
2019-04-21T08:23:25.674Z,50.62
2019-04-21T08:28:31.710Z,44.51
2019-04-21T08:31:01.776Z,46.15
2019-04-21T08:33:47.041Z,46.90
2019-04-21T08:36:12.913Z,46.37
2019-04-21T08:38:28.681Z,48.63
2019-04-21T08:41:03.566Z,46.90
2019-04-21T08:43:45.614Z,47.87
2019-04-21T08:45:58.767Z,47.26
2019-04-21T08:48:32.769Z,46.68
2019-04-21T08:51:18.466Z,44.80
2019-04-21T08:53:35.691Z,47.12
2019-04-21T08:56:21.265Z,48.86
2019-04-21T08:59:20.474Z,49.65
2019-04-21T09:01:55.769Z,46.39
2019-04-21T09:04:26.243Z,45.07
2019-04-21T09:09:28.886Z,43.15
2019-04-21T09:11:59.173Z,41.68
2019-04-21T09:14:24.104Z,40.41
2019-04-21T09:16:53.305Z,41.60
2019-04-21T09:19:38.784Z,41.18
2019-04-21T09:22:02.349Z,40.67
2019-04-21T09:24:26.933Z,41.63
2019-04-21T09:26:57.995Z,41.40
2019-04-21T09:29:25.745Z,40.33
2019-04-21T09:31:45.165Z,39.66
2019-04-21T09:34:21.104Z,41.68
2019-04-21T09:36:48.061Z,44.29
2019-04-21T09:39:18.344Z,41.94
2019-04-21T09:41:44.923Z,42.38
2019-04-21T09:44:20.646Z,41.66
2019-04-21T09:46:50.616Z,41.54
2019-04-21T09:49:20.640Z,40.04
2019-04-21T09:51:45.949Z,40.56
2019-04-21T09:54:22.464Z,40.79
2019-04-21T09:56:52.387Z,38.62
2019-04-21T09:59:27.587Z,40.90
2019-04-21T10:01:59.168Z,39.65
2019-04-21T10:04:21.177Z,41.23
2019-04-21T10:06:49.845Z,42.00
2019-04-21T10:09:21.545Z,40.81
2019-04-21T10:11:50.379Z,41.93
2019-04-21T10:14:19.796Z,42.15
2019-04-21T10:17:05.841Z,39.57
2019-04-21T10:19:34.416Z,39.74
2019-04-21T10:22:05.574Z,38.86
2019-04-21T10:24:34.045Z,39.36
2019-04-21T10:27:05.061Z,38.79
2019-04-21T10:29:34.836Z,40.00
2019-04-21T10:32:03.910Z,37.63
2019-04-21T10:34:32.430Z,38.62
2019-04-21T10:37:01.047Z,38.80
2019-04-21T10:39:29.658Z,38.97
2019-04-21T10:41:59.497Z,38.71
2019-04-21T10:44:29.434Z,36.88
2019-04-21T10:46:58.463Z,37.46
2019-04-21T10:49:27.126Z,39.63
2019-04-21T10:51:56.847Z,37.29
2019-04-21T10:54:27.217Z,36.71
2019-04-21T10:56:56.654Z,35.03
2019-04-21T10:59:25.371Z,35.40
2019-04-21T11:01:54.890Z,42.74
2019-04-21T11:04:34.569Z,37.91
2019-04-21T11:07:06.028Z,38.96
2019-04-21T11:09:31.858Z,38.98
2019-04-21T11:12:02.005Z,37.68
2019-04-21T11:14:31.505Z,38.09
2019-04-21T11:17:00.574Z,36.10
2019-04-21T11:19:30.586Z,37.83
2019-04-21T11:22:00.866Z,35.81
2019-04-21T11:24:31.186Z,37.60
2019-04-21T11:27:01.656Z,38.20
2019-04-21T11:29:31.024Z,36.96
2019-04-21T11:32:00.875Z,35.94
2019-04-21T11:34:29.783Z,36.24
2019-04-21T11:36:58.497Z,35.76
2019-04-21T11:39:39.174Z,35.71
2019-04-21T11:42:03.839Z,36.08
2019-04-21T11:44:33.097Z,35.29
2019-04-21T11:47:04.586Z,34.54
2019-04-21T11:49:33.271Z,34.13
2019-04-21T11:52:02.842Z,35.03
2019-04-21T11:54:32.825Z,36.13
2019-04-21T11:57:08.001Z,35.34
2019-04-21T11:59:33.376Z,42.05
2019-04-21T12:02:02.042Z,34.97
2019-04-21T12:04:31.673Z,36.10
2019-04-21T12:07:01.765Z,36.24
2019-04-21T12:09:30.489Z,35.94
2019-04-21T12:11:59.194Z,36.90
2019-04-21T12:14:28.072Z,39.46
2019-04-21T12:16:57.191Z,37.34
2019-04-21T12:19:27.005Z,39.81
2019-04-21T12:22:06.334Z,44.47
2019-04-21T12:24:29.992Z,45.12
2019-04-21T12:26:57.983Z,41.30
2019-04-21T12:29:26.937Z,40.63
2019-04-21T12:32:22.141Z,44.24
2019-04-21T12:34:52.172Z,43.32
2019-04-21T12:37:22.745Z,38.23
2019-04-21T12:39:52.529Z,47.74
2019-04-21T12:42:21.114Z,39.87
2019-04-21T12:44:49.632Z,36.53
2019-04-21T12:47:19.560Z,37.66
2019-04-21T12:49:48.172Z,35.90
2019-04-21T12:52:17.735Z,37.21
2019-04-21T12:54:47.924Z,42.11
2019-04-21T12:57:17.147Z,45.05
2019-04-21T12:59:46.683Z,37.76
2019-04-21T13:02:15.931Z,37.40
2019-04-21T13:04:45.891Z,40.62
2019-04-21T13:07:15.406Z,41.67
2019-04-21T13:09:44.300Z,38.66
2019-04-21T13:12:13.214Z,36.49
2019-04-21T13:14:42.108Z,37.17
2019-04-21T13:17:10.916Z,44.07
2019-04-21T13:19:39.519Z,36.50
2019-04-21T13:22:09.900Z,40.39
2019-04-21T13:24:39.912Z,48.71
2019-04-21T13:27:09.457Z,40.54
2019-04-21T13:29:39.117Z,37.54
2019-04-21T13:32:08.957Z,36.73
2019-04-21T13:34:38.422Z,37.24
2019-04-21T13:37:07.634Z,37.50
2019-04-21T13:40:29.181Z,48.02
2019-04-21T13:42:45.610Z,41.36
2019-04-21T13:45:12.170Z,40.64
2019-04-21T13:47:40.945Z,45.57
2019-04-21T13:50:11.202Z,37.15
2019-04-21T13:52:40.683Z,38.84
2019-04-21T13:55:09.735Z,38.27
2019-04-21T13:57:38.830Z,39.74
2019-04-21T14:00:08.940Z,37.05
2019-04-21T14:02:38.680Z,41.26
2019-04-21T14:05:10.110Z,38.90
2019-04-21T14:07:38.551Z,38.61
2019-04-21T14:10:10.374Z,43.41
2019-04-21T14:12:38.288Z,36.88
2019-04-21T14:15:08.305Z,41.59
2019-04-21T14:17:37.087Z,43.33
2019-04-21T14:20:07.021Z,43.58
2019-04-21T14:22:36.014Z,43.40
2019-04-21T14:25:05.874Z,39.30
2019-04-21T14:27:34.567Z,38.54
2019-04-21T14:30:04.896Z,41.36
2019-04-21T14:32:33.837Z,48.55
2019-04-21T14:35:03.139Z,44.53
2019-04-21T14:37:32.885Z,37.11
2019-04-21T14:40:08.626Z,45.35
2019-04-21T14:42:33.932Z,40.53
2019-04-21T14:45:05.053Z,39.99
2019-04-21T14:48:05.360Z,46.18
2019-04-21T14:50:46.333Z,39.98
2019-04-21T14:53:23.604Z,38.83
2019-04-21T14:55:53.193Z,43.17
2019-04-21T14:58:23.272Z,42.04
2019-04-21T15:00:55.697Z,48.16
2019-04-21T15:03:25.832Z,44.38
2019-04-21T15:05:55.669Z,39.50
2019-04-21T15:08:25.052Z,43.74
2019-04-21T15:10:54.830Z,46.11
2019-04-21T15:13:23.750Z,49.65
2019-04-21T15:15:52.354Z,43.08
2019-04-21T15:18:21.092Z,41.91
2019-04-21T15:20:50.532Z,37.14
2019-04-21T15:23:20.378Z,39.38
2019-04-21T15:25:50.265Z,37.87
2019-04-21T15:28:25.484Z,40.43
2019-04-21T15:30:54.636Z,40.62
2019-04-21T15:33:24.378Z,45.52
2019-04-21T15:35:53.183Z,46.17
2019-04-21T15:38:22.238Z,43.99
2019-04-21T15:40:56.073Z,38.40
2019-04-21T15:43:22.452Z,39.92
2019-04-21T15:45:51.089Z,38.86
2019-04-21T15:48:20.213Z,44.89
2019-04-21T15:50:51.528Z,39.83
2019-04-21T15:53:21.649Z,42.15
2019-04-21T15:55:55.040Z,39.50
2019-04-21T15:58:58.915Z,43.10
2019-04-21T16:01:38.869Z,40.72
2019-04-21T16:04:08.025Z,39.59
2019-04-21T16:06:37.370Z,48.64
2019-04-21T16:09:08.548Z,45.90
2019-04-21T16:11:37.870Z,42.40
2019-04-21T16:14:08.111Z,49.85
2019-04-21T16:16:36.697Z,47.58
2019-04-21T16:19:06.136Z,45.14
2019-04-21T16:21:38.364Z,43.31
2019-04-21T16:24:06.760Z,46.13
2019-04-21T16:26:35.548Z,45.87
2019-04-21T16:29:05.002Z,46.45
2019-04-21T16:31:34.326Z,45.09
2019-04-21T16:34:03.275Z,48.10
2019-04-21T16:36:31.953Z,48.44
2019-04-21T16:39:01.716Z,50.89
2019-04-21T16:41:31.982Z,45.42
2019-04-21T16:44:00.943Z,50.17
2019-04-21T16:46:29.621Z,50.11
2019-04-21T16:48:58.202Z,52.02
2019-04-21T16:51:26.806Z,53.51
2019-04-21T16:53:59.867Z,52.51
2019-04-21T16:56:35.877Z,46.17
2019-04-21T16:59:19.006Z,47.28
2019-04-21T17:01:48.822Z,54.15
2019-04-21T17:04:18.253Z,48.03
2019-04-21T17:06:47.192Z,55.70
2019-04-21T17:09:16.753Z,51.95
2019-04-21T17:11:46.963Z,49.99
2019-04-21T17:14:32.923Z,54.96
2019-04-21T17:17:16.261Z,55.09
2019-04-21T17:19:25.086Z,53.06
2019-04-21T17:21:47.900Z,54.49
2019-04-21T17:24:16.823Z,53.38
2019-04-21T17:26:46.456Z,52.21
2019-04-21T17:29:16.840Z,50.58
2019-04-21T17:31:45.660Z,49.63
2019-04-21T17:34:19.560Z,54.38
2019-04-21T17:36:45.376Z,51.87
2019-04-21T17:39:14.038Z,56.26
2019-04-21T17:42:04.091Z,56.22
2019-04-21T17:44:13.120Z,53.89
2019-04-21T17:46:48.535Z,51.62
2019-04-21T17:49:12.810Z,53.06
2019-04-21T17:52:18.177Z,54.63
2019-04-21T17:54:54.279Z,53.50
2019-04-21T17:57:43.843Z,55.51
2019-04-21T18:00:13.950Z,57.40
2019-04-21T18:02:51.769Z,57.37
2019-04-21T18:05:19.346Z,58.56
2019-04-21T18:07:45.384Z,58.54
2019-04-21T18:10:11.426Z,55.72
2019-04-21T18:12:36.088Z,56.62
2019-04-21T18:15:08.328Z,57.71
2019-04-21T18:17:26.751Z,58.37
2019-04-21T18:19:57.201Z,58.92
2019-04-21T18:22:53.171Z,60.76
2019-04-21T18:25:36.140Z,58.24
2019-04-21T18:27:54.542Z,58.64
2019-04-21T18:30:52.280Z,58.38
2019-04-21T18:33:27.362Z,59.70
2019-04-21T18:36:13.481Z,60.75
2019-04-21T18:39:16.784Z,59.81
2019-04-21T18:41:42.520Z,60.12
2019-04-21T18:44:32.248Z,62.52
2019-04-21T18:47:20.011Z,59.31
2019-04-21T18:49:44.147Z,61.79
2019-04-21T18:52:53.124Z,61.13
2019-04-21T18:55:18.984Z,61.79
2019-04-21T18:57:43.999Z,62.50
2019-04-21T19:00:26.458Z,60.57
2019-04-21T19:02:54.234Z,63.51
2019-04-21T19:05:24.206Z,61.36
2019-04-21T19:08:10.507Z,61.71
2019-04-21T19:10:39.633Z,63.18
2019-04-21T19:22:00.196Z,62.38
2019-04-21T19:27:08.015Z,61.55
2019-04-21T19:29:57.244Z,62.36
2019-04-21T19:32:01.806Z,67.12
2019-04-21T19:34:23.392Z,64.14
2019-04-21T19:36:51.025Z,68.11
2019-04-21T19:39:36.148Z,64.36
2019-04-21T19:42:00.417Z,66.74
2019-04-21T19:44:38.227Z,62.70
2019-04-21T19:47:10.816Z,62.64
2019-04-21T19:49:45.485Z,63.63
2019-04-21T19:52:01.989Z,64.52
2019-04-21T19:54:32.037Z,66.73
2019-04-21T19:56:55.538Z,66.34
2019-04-21T19:59:32.483Z,65.10
2019-04-21T20:01:54.591Z,66.47
2019-04-21T20:04:31.784Z,67.03
2019-04-21T20:07:02.800Z,67.53
2019-04-21T20:09:40.559Z,69.89
2019-04-21T20:12:09.660Z,65.91
2019-04-21T20:17:08.569Z,68.94
2019-04-21T20:19:26.693Z,67.32
2019-04-21T20:21:56.935Z,68.00
2019-04-21T20:24:28.851Z,66.19
2019-04-21T20:27:02.333Z,68.27
2019-04-21T20:29:46.611Z,66.74
2019-04-21T20:32:20.075Z,65.81
2019-04-21T20:34:50.905Z,65.59
2019-04-21T20:37:15.047Z,66.29
2019-04-21T20:39:41.828Z,67.30
2019-04-21T20:42:18.112Z,67.83
2019-04-21T20:44:54.551Z,67.30
2019-04-21T20:47:12.892Z,69.59
2019-04-21T20:49:38.663Z,68.14
2019-04-21T20:52:17.300Z,68.05
2019-04-21T20:54:48.217Z,66.76
2019-04-21T20:57:18.319Z,67.07
2019-04-21T20:59:45.164Z,68.69
2019-04-21T21:02:20.108Z,68.82
2019-04-21T21:04:43.475Z,67.97
2019-04-21T21:07:34.655Z,66.94
2019-04-21T21:09:56.005Z,67.60
2019-04-21T21:12:27.710Z,69.82
2019-04-21T21:14:48.978Z,68.07
2019-04-21T21:17:41.877Z,68.63
2019-04-21T21:19:53.184Z,67.96
2019-04-21T21:22:16.524Z,67.60
2019-04-21T21:24:53.936Z,70.60
2019-04-21T21:27:19.532Z,68.86
2019-04-21T21:29:56.126Z,72.17
2019-04-21T21:32:27.059Z,72.01
2019-04-21T21:35:01.351Z,68.40
2019-04-21T21:37:31.815Z,70.37
2019-04-21T21:40:18.101Z,70.34
2019-04-21T21:42:11.807Z,72.43
2019-04-21T21:44:52.047Z,74.04
2019-04-21T21:47:25.311Z,73.33
2019-04-21T21:49:58.190Z,73.25
2019-04-21T21:52:29.654Z,71.98
2019-04-21T21:54:43.683Z,73.00
2019-04-21T21:57:12.483Z,74.22
2019-04-21T21:59:42.207Z,72.59
2019-04-21T22:02:17.168Z,73.16
2019-04-21T22:04:51.046Z,71.80
2019-04-21T22:07:16.107Z,71.67
2019-04-21T22:09:44.235Z,74.43
2019-04-21T22:12:14.141Z,71.52
2019-04-21T22:14:46.901Z,72.54
2019-04-21T22:17:31.564Z,70.35
2019-04-21T22:20:03.803Z,71.40
2019-04-21T22:22:27.673Z,71.08
2019-04-21T22:24:55.676Z,71.93
2019-04-21T22:27:15.141Z,72.57
2019-04-21T22:29:48.210Z,71.51
2019-04-21T22:32:19.210Z,74.54
2019-04-21T22:34:52.389Z,72.64
2019-04-21T22:37:30.877Z,74.29
2019-04-21T22:40:00.812Z,73.64
2019-04-21T22:42:22.400Z,74.19
2019-04-21T22:44:46.299Z,74.53
2019-04-21T22:47:20.625Z,74.09
2019-04-21T22:49:46.500Z,74.53
2019-04-21T22:52:19.058Z,72.95
2019-04-21T22:54:48.482Z,75.01
2019-04-21T22:57:19.879Z,73.97
2019-04-21T22:59:53.905Z,73.76
2019-04-21T23:02:22.636Z,74.77
2019-04-21T23:04:52.477Z,75.17
2019-04-21T23:07:21.075Z,74.03
2019-04-21T23:09:49.496Z,76.45
2019-04-21T23:12:22.791Z,76.31
2019-04-21T23:14:57.349Z,77.00
2019-04-21T23:17:42.239Z,75.67
2019-04-21T23:20:13.280Z,75.41
2019-04-21T23:22:49.397Z,76.43
2019-04-21T23:25:09.524Z,76.61
2019-04-21T23:27:38.733Z,77.64
2019-04-21T23:30:20.247Z,76.90
2019-04-21T23:32:33.866Z,77.86
2019-04-21T23:34:55.316Z,76.57
2019-04-21T23:37:25.592Z,77.33
2019-04-21T23:40:02.101Z,78.41
2019-04-21T23:42:31.772Z,77.50
2019-04-21T23:44:58.020Z,79.25
2019-04-21T23:47:34.583Z,81.08
2019-04-21T23:50:02.722Z,80.72
2019-04-21T23:52:25.673Z,82.55
2019-04-21T23:54:55.548Z,81.45
2019-04-21T23:57:31.486Z,80.09
2019-04-21T23:59:57.106Z,81.94
